Latest Weather Observations for Cummins Airport

IDS60801

Issued at 7:21 am CDT Friday 21 January 2022 (issued every 10 minutes, with the page automatically refreshed every 10 minutes)

About weather observations | Map of weather stations | Latest weather observations for SA | Other Formats
Station Details ID: 018217 Name: CUMMINS AERO Lat: -34.25 Lon: 135.71 Height: 60.11 m
Data from the previous 72 hours. | See also: Recent months at Cummins Airport
Date/Time
CDT
Temp
°C
App
Temp
°C
Dew
Point
°C
Rel
Hum
%
Delta-T
°C
Wind Press
QNH
hPa
Press
MSL
hPa
Rain since
9am
mm
Dir  Spd
km/h
Gust
km/h
Spd
kts
Gust
kts
21/07:00am 25.6 23.1 16.2 56 5.8 E 24 32 13 17 1014.0 1013.8 0.0
21/06:30am 26.0 23.1 16.0 54 6.1 E 26 35 14 19 1013.8 1013.6 0.0
21/06:00am 25.8 22.9 15.2 52 6.4 E 24 33 13 18 1013.7 1013.5 0.0
21/05:30am 25.6 23.1 14.1 49 6.8 E 20 30 11 16 1013.6 1013.4 0.0
21/05:00am 25.4 22.4 14.8 52 6.4 E 24 32 13 17 1013.5 1013.3 0.0
21/04:30am 25.4 23.3 15.1 53 6.2 E 20 30 11 16 1013.7 1013.5 0.0
21/04:00am 24.8 21.9 14.0 51 6.4 ESE 22 30 12 16 1013.8 1013.6 0.0
21/03:30am 25.0 21.7 13.9 50 6.6 E 24 32 13 17 1013.9 1013.7 0.0
21/03:00am 24.5 21.9 13.7 51 6.3 E 20 30 11 16 1014.3 1014.1 0.0
21/02:30am 24.6 20.9 13.8 51 6.4 E 26 35 14 19 1014.4 1014.2 0.0
21/02:00am 24.7 20.5 13.6 50 6.5 E 28 37 15 20 1014.4 1014.2 0.0
21/01:30am 25.0 20.8 13.5 48 6.7 ESE 28 37 15 20 1014.8 1014.6 0.0
21/01:00am 25.3 21.1 13.5 48 6.9 ESE 28 35 15 19 1015.1 1014.9 0.0
21/12:30am 25.5 20.9 13.4 47 7.1 ESE 30 39 16 21 1015.2 1015.0 0.0
21/12:00am 25.4 20.7 13.3 47 7.1 ESE 30 37 16 20 1015.2 1015.0 0.0
 
Date/Time
CDT
Temp
°C
App
Temp
°C
Dew
Point
°C
Rel
Hum
%
Delta-T
°C
Wind Press
QNH
hPa
Press
MSL
hPa
Rain since
9am
mm
Dir  Spd
km/h
Gust
km/h
Spd
kts
Gust
kts
20/11:30pm 25.9 21.8 12.7 44 7.7 ESE 26 35 14 19 1015.3 1015.1 0.0
20/11:00pm 26.0 21.9 12.8 44 7.7 ESE 26 33 14 18 1015.3 1015.1 0.0
20/10:30pm 26.2 21.5 13.3 45 7.6 ESE 30 37 16 20 1015.1 1014.9 0.0
20/10:00pm 26.2 21.5 13.3 45 7.6 SE 30 39 16 21 1014.7 1014.5 0.0
20/09:30pm 27.4 22.9 12.6 40 8.6 SE 28 37 15 20 1014.6 1014.4 0.0
20/09:00pm 28.5 24.3 12.4 37 9.4 ESE 26 37 14 20 1014.3 1014.1 0.0
20/08:30pm 29.4 25.7 12.8 36 9.8 SE 24 32 13 17 1014.1 1013.9 0.0
20/08:00pm 30.2 26.4 13.5 36 10.0 SE 26 33 14 18 1013.9 1013.7 0.0
20/07:30pm 30.8 26.6 13.6 35 10.3 ESE 28 35 15 19 1013.7 1013.5 0.0
20/07:00pm 32.0 27.3 14.2 34 10.9 ESE 32 43 17 23 1013.6 1013.4 0.0
20/06:30pm 31.6 26.9 14.3 35 10.6 E 32 41 17 22 1013.6 1013.4 0.0
20/06:00pm 33.0 28.2 14.6 33 11.3 ESE 33 44 18 24 1013.6 1013.4 0.0
20/05:30pm 32.3 27.8 14.9 35 10.7 E 32 50 17 27 1013.7 1013.5 0.0
20/05:28pm 32.0 27.4 14.6 34 10.7 E 32 50 17 27 1013.7 1013.5 0.0
20/05:00pm 32.3 27.1 14.4 33 11.0 E 35 50 19 27 1013.9 1013.7 0.0
20/04:30pm 33.3 28.2 14.8 32 11.4 E 35 48 19 26 1014.3 1014.1 0.0
20/04:08pm 32.6 27.3 14.2 32 11.3 E 35 54 19 29 1014.5 1014.3 0.0
20/04:00pm 32.3 26.7 14.4 33 11.0 E 37 54 20 29 1014.5 1014.3 0.0
20/03:50pm 33.2 28.5 14.8 33 11.4 E 33 52 18 28 1014.7 1014.5 0.0
20/03:30pm 33.1 27.6 14.7 33 11.3 E 37 52 20 28 1014.9 1014.7 0.0
20/03:13pm 32.2 26.7 14.8 35 10.7 ENE 37 56 20 30 1015.0 1014.8 0.0
20/03:00pm 32.7 28.1 15.2 34 10.9 E 33 48 18 26 1015.3 1015.1 0.0
20/02:30pm 31.9 27.0 15.4 37 10.2 E 35 52 19 28 1015.6 1015.4 0.0
20/02:06pm 31.3 26.4 15.3 38 9.9 ENE 35 54 19 29 1015.7 1015.5 0.0
20/02:00pm 31.1 25.4 15.1 38 9.9 ENE 39 52 21 28 1015.8 1015.6 0.0
20/01:36pm 31.0 25.6 15.0 38 9.8 E 37 56 20 30 1016.0 1015.8 0.0
20/01:30pm 30.6 25.4 15.5 40 9.3 E 37 54 20 29 1016.0 1015.8 0.0
20/01:00pm 30.7 25.0 15.2 39 9.6 E 39 52 21 28 1016.3 1016.1 0.0
20/12:30pm 31.3 26.5 15.7 39 9.7 E 35 54 19 29 1016.4 1016.2 0.0
20/12:00pm 29.9 24.9 16.0 43 8.6 ENE 37 57 20 31 1016.7 1016.5 0.0
20/11:49am 29.8 25.2 16.2 43 8.5 E 35 54 19 29 1016.8 1016.6 0.0
20/11:30am 29.5 24.6 16.3 45 8.2 E 37 50 20 27 1017.0 1016.8 0.0
20/11:00am 28.7 23.8 16.3 47 7.7 ENE 37 50 20 27 1017.2 1017.0 0.0
20/10:31am 28.3 23.3 16.2 47 7.5 ENE 37 56 20 30 1017.2 1017.0 0.0
20/10:30am 28.2 22.8 16.1 47 7.5 ENE 39 56 21 30 1017.2 1017.0 0.0
20/10:21am 28.2 24.0 16.1 47 7.5 E 33 54 18 29 1017.1 1016.9 0.0
20/10:00am 26.8 23.0 16.7 54 6.3 ENE 32 44 17 24 1017.4 1017.2 0.0
20/09:30am 25.4 22.3 16.5 57 5.5 E 28 46 15 25 1017.6 1017.4 0.0
20/09:26am 25.6 22.6 16.7 58 5.5 E 28 46 15 25 1017.7 1017.5 0.0
20/09:00am 24.6 21.0 16.3 60 5.1 E 30 43 16 23 1017.4 1017.2 0.0
20/08:30am 23.8 20.8 15.8 61 4.8 E 26 35 14 19 1017.1 1016.9 0.0
20/08:00am 22.9 20.2 15.5 63 4.4 E 24 33 13 18 1016.9 1016.7 0.0
20/07:30am 22.5 19.2 14.9 62 4.5 E 26 33 14 18 1016.5 1016.3 0.0
20/07:00am 22.2 19.3 14.1 60 4.7 ESE 22 30 12 16 1016.5 1016.3 0.0
20/06:30am 22.1 19.0 13.5 58 5.0 ESE 22 30 12 16 1016.3 1016.1 0.0
20/06:00am 20.5 18.4 15.1 71 3.2 ESE 20 26 11 14 1016.2 1016.0 0.0
20/05:30am 20.3 18.2 15.3 73 3.0 SE 20 24 11 13 1016.2 1016.0 0.0
20/05:00am 20.5 17.4 14.6 69 3.5 ESE 24 33 13 18 1016.2 1016.0 0.0
20/04:30am 20.1 17.7 15.5 75 2.7 SE 22 30 12 16 1015.9 1015.7 0.0
20/04:00am 19.8 19.9 15.4 76 2.6 S 9 13 5 7 1016.1 1015.9 0.0
20/03:30am 19.3 17.8 15.4 78 2.3 SSE 17 22 9 12 1015.8 1015.6 0.0
20/03:00am 18.7 17.2 15.4 81 1.9 SE 17 22 9 12 1016.0 1015.8 0.0
20/02:30am 18.7 16.5 15.9 84 1.7 SE 22 26 12 14 1016.1 1015.9 0.0
20/02:00am 18.1 16.8 16.8 92 0.8 SE 19 20 10 11 1016.5 1016.3 0.0
20/01:30am 16.7 16.3 16.2 97 0.3 S 13 13 7 7 1016.8 1016.6 0.0
20/01:00am 15.7 15.1 14.7 94 0.6 SSW 11 13 6 7 1017.2 1017.0 0.0
20/12:30am 16.5 16.0 15.0 91 0.9 S 11 15 6 8 1017.5 1017.3 0.0
20/12:00am 17.1 15.9 15.1 88 1.2 SSE 15 17 8 9 1017.7 1017.5 0.0
 
Date/Time
CDT
Temp
°C
App
Temp
°C
Dew
Point
°C
Rel
Hum
%
Delta-T
°C
Wind Press
QNH
hPa
Press
MSL
hPa
Rain since
9am
mm
Dir  Spd
km/h
Gust
km/h
Spd
kts
Gust
kts
19/11:30pm 17.4 15.8 14.9 85 1.4 SSE 17 20 9 11 1017.6 1017.4 0.0
19/11:00pm 17.7 16.8 14.8 83 1.7 SSE 13 17 7 9 1017.8 1017.6 0.0
19/10:30pm 18.3 16.5 14.4 78 2.2 SE 17 22 9 12 1017.6 1017.4 0.0
19/10:00pm 18.1 16.1 13.8 76 2.5 SSE 17 20 9 11 1017.3 1017.1 0.0
19/09:30pm 18.6 16.5 13.7 73 2.8 SSE 17 22 9 12 1017.2 1017.0 0.0
19/09:00pm 18.9 16.1 13.3 70 3.2 SE 20 26 11 14 1017.0 1016.8 0.0
19/08:30pm 19.5 15.5 13.0 66 3.7 SE 26 35 14 19 1017.0 1016.8 0.0
19/08:00pm 20.3 16.1 12.5 61 4.4 SE 26 39 14 21 1017.1 1016.9 0.0
19/07:30pm 21.0 15.7 12.4 58 4.9 SE 32 41 17 22 1017.0 1016.8 0.0
19/07:00pm 21.6 16.1 11.9 54 5.4 SE 32 39 17 21 1016.6 1016.4 0.0
19/06:30pm 22.4 17.3 11.8 51 6.0 SE 30 43 16 23 1016.6 1016.4 0.0
19/06:00pm 22.4 16.7 11.8 51 6.0 SE 33 43 18 23 1016.3 1016.1 0.0
19/05:30pm 23.4 17.8 11.5 47 6.7 SE 32 43 17 23 1016.5 1016.3 0.0
19/05:00pm 23.2 17.3 10.6 45 7.0 SE 32 43 17 23 1016.5 1016.3 0.0
19/04:30pm 23.8 18.6 11.5 46 6.9 SE 30 41 16 22 1016.8 1016.6 0.0
19/04:00pm 23.4 17.7 11.1 46 6.9 SE 32 44 17 24 1017.0 1016.8 0.0
19/03:30pm 24.0 18.3 11.7 46 7.0 SE 33 46 18 25 1017.3 1017.1 0.0
19/03:00pm 23.0 17.3 11.1 47 6.6 SE 32 43 17 23 1017.7 1017.5 0.0
19/02:30pm 22.9 17.2 11.0 47 6.6 SE 32 43 17 23 1018.2 1018.0 0.0
19/02:00pm 22.9 17.2 11.3 48 6.5 SE 32 43 17 23 1018.4 1018.2 0.0
19/01:30pm 22.7 16.9 11.4 49 6.3 SE 33 43 18 23 1018.6 1018.4 0.0
19/01:00pm 21.9 16.0 11.0 50 6.0 SE 33 46 18 25 1018.8 1018.6 0.0
19/12:30pm 22.1 16.4 11.8 52 5.8 SE 33 46 18 25 1018.9 1018.7 0.0
19/12:00pm 21.4 15.8 12.0 55 5.3 SE 33 43 18 23 1019.2 1019.0 0.0
19/11:30am 20.6 14.9 11.8 57 4.9 SE 33 44 18 24 1019.4 1019.2 0.0
19/11:00am 21.0 15.1 11.3 54 5.4 SE 33 50 18 27 1019.4 1019.2 0.0
19/10:30am 20.8 14.6 12.5 59 4.7 SE 37 48 20 26 1019.2 1019.0 0.0
19/10:00am 20.5 14.3 12.5 60 4.5 SE 37 44 20 24 1019.2 1019.0 0.0
19/09:30am 19.9 13.6 12.2 61 4.3 ESE 37 50 20 27 1019.4 1019.2 0.0
19/09:00am 19.3 13.4 12.3 64 3.9 SE 35 46 19 25 1019.2 1019.0 0.0
19/08:30am 18.7 13.2 12.5 67 3.5 SE 33 44 18 24 1019.1 1018.9 0.0
19/08:00am 18.0 13.7 13.1 73 2.8 SE 28 37 15 20 1018.8 1018.6 0.0
19/07:30am 17.0 12.6 12.9 77 2.3 SE 28 37 15 20 1018.4 1018.2 0.0
19/07:00am 16.3 12.6 12.8 80 1.9 SE 24 35 13 19 1018.2 1018.0 0.0
19/06:30am 16.2 12.1 12.7 80 1.9 SE 26 33 14 18 1017.9 1017.7 0.0
19/06:00am 15.9 12.1 12.5 80 1.9 SE 24 35 13 19 1017.7 1017.5 0.0
19/05:30am 16.1 12.8 12.7 80 1.9 SE 22 30 12 16 1017.5 1017.3 0.0
19/05:00am 16.1 12.0 12.7 80 1.9 SE 26 33 14 18 1017.3 1017.1 0.0
19/04:30am 15.8 11.9 12.2 79 2.0 SE 24 35 13 19 1017.3 1017.1 0.0
19/04:00am 15.9 11.6 12.1 78 2.1 SE 26 39 14 21 1017.3 1017.1 0.0
19/03:30am 15.9 12.1 12.3 79 2.0 SE 24 32 13 17 1017.4 1017.2 0.0
19/03:00am 15.9 11.9 11.9 77 2.2 SE 24 33 13 18 1017.4 1017.2 0.0
19/02:30am 16.0 12.5 12.2 78 2.1 SE 22 30 12 16 1017.5 1017.3 0.0
19/02:00am 15.5 12.0 10.9 74 2.5 SE 20 28 11 15 1017.8 1017.6 0.0
19/01:30am 16.0 11.6 10.3 69 3.0 SE 24 35 13 19 1018.0 1017.8 0.0
19/01:00am 16.2 11.2 10.9 71 2.8 SE 28 37 15 20 1018.3 1018.1 0.0
19/12:34am 16.4 11.3 10.5 68 3.1 SE 28 46 15 25 1018.3 1018.1 0.0
19/12:30am 16.6 11.1 10.5 67 3.2 SE 30 46 16 25 1018.2 1018.0 0.0
19/12:28am 16.7 11.7 10.8 68 3.2 SE 28 46 15 25 1018.1 1017.9 0.0
19/12:00am 16.5 11.8 10.8 69 3.0 SE 26 39 14 21 1018.2 1018.0 0.0
 
Date/Time
CDT
Temp
°C
App
Temp
°C
Dew
Point
°C
Rel
Hum
%
Delta-T
°C
Wind Press
QNH
hPa
Press
MSL
hPa
Rain since
9am
mm
Dir  Spd
km/h
Gust
km/h
Spd
kts
Gust
kts
18/11:30pm 16.8 11.3 10.6 67 3.3 SE 30 39 16 21 1018.2 1018.0 0.0
18/11:00pm 17.4 12.4 10.8 65 3.6 SE 28 39 15 21 1018.3 1018.1 0.0
18/10:30pm 17.5 11.8 11.1 66 3.5 SE 32 43 17 23 1018.2 1018.0 0.0
18/10:00pm 17.8 12.0 10.9 64 3.7 SE 32 43 17 23 1018.0 1017.8 0.0
18/09:30pm 17.9 12.2 11.9 68 3.3 SSE 33 43 18 23 1017.9 1017.7 0.0
18/09:00pm 18.0 12.4 12.0 68 3.3 SSE 33 46 18 25 1017.8 1017.6 0.0
18/08:53pm 18.1 13.4 11.9 67 3.4 SSE 28 46 15 25 1017.6 1017.4 0.0
18/08:30pm 18.3 12.5 11.6 65 3.7 SSE 33 43 18 23 1017.6 1017.4 0.0
18/08:00pm 18.7 12.2 10.5 59 4.4 SSE 35 48 19 26 1017.1 1016.9 0.0
18/07:30pm 18.9 12.2 11.0 60 4.3 SSE 37 48 20 26 1016.6 1016.4 0.0
18/07:00pm 19.3 12.6 9.8 54 5.1 SSE 35 52 19 28 1016.5 1016.3 0.0
18/06:55pm 19.6 13.5 9.8 53 5.2 SSE 32 52 17 28 1016.2 1016.0 0.0
18/06:30pm 20.6 14.5 9.8 50 5.8 SE 32 43 17 23 1016.4 1016.2 0.0
18/06:00pm 20.0 13.9 10.4 54 5.2 SE 33 46 18 25 1016.1 1015.9 0.0
18/05:30pm 20.7 14.0 9.6 49 5.9 SSE 35 46 19 25 1016.3 1016.1 0.0
18/05:19pm 21.8 15.4 10.6 49 6.2 SE 35 54 19 29 1016.1 1015.9 0.0
18/05:00pm 21.9 15.4 9.1 44 6.8 SE 33 50 18 27 1016.1 1015.9 0.0
18/04:30pm 21.6 14.8 9.2 45 6.6 SSE 35 46 19 25 1016.3 1016.1 0.0
18/04:00pm 22.6 16.3 9.7 44 7.0 SSE 33 46 18 25 1016.0 1015.8 0.0
18/03:30pm 22.4 15.6 9.2 43 7.1 SSE 35 50 19 27 1016.2 1016.0 0.0
18/03:00pm 23.1 16.6 10.5 45 6.9 SSE 35 46 19 25 1016.3 1016.1 0.0
18/02:30pm 22.5 16.3 9.3 43 7.1 SE 32 44 17 24 1016.5 1016.3 0.0
18/02:04pm 22.8 16.7 10.3 45 6.9 SE 33 52 18 28 1016.5 1016.3 0.0
18/02:00pm 22.0 15.4 9.9 46 6.6 SE 35 52 19 28 1016.4 1016.2 0.0
18/01:30pm 22.8 16.9 10.3 45 6.9 SE 32 44 17 24 1016.8 1016.6 0.0
18/01:09pm 22.6 16.7 10.4 46 6.7 SE 32 50 17 27 1016.9 1016.7 0.0
18/01:00pm 22.5 16.5 10.0 45 6.8 SE 32 44 17 24 1016.9 1016.7 0.0
18/12:30pm 21.6 15.5 9.8 47 6.4 SE 32 43 17 23 1017.0 1016.8 0.0
18/12:00pm 21.4 15.3 9.9 48 6.2 SE 32 43 17 23 1017.2 1017.0 0.0
18/11:30am 21.3 15.2 9.9 48 6.2 SE 32 44 17 24 1017.6 1017.4 0.0
18/11:00am 19.9 13.5 9.5 51 5.5 SE 33 41 18 22 1017.4 1017.2 0.0
18/10:30am 20.3 13.6 8.3 46 6.3 ESE 33 44 18 24 1017.6 1017.4 0.0
18/10:00am 19.9 13.5 8.6 48 5.9 ESE 32 43 17 23 1017.8 1017.6 0.0
18/09:30am 18.5 12.3 9.3 55 4.8 SE 32 43 17 23 1017.7 1017.5 0.0
18/09:00am 18.2 11.7 9.0 55 4.8 SE 33 43 18 23 1017.3 1017.1 0.0
18/08:30am 17.6 11.2 9.5 59 4.2 SE 33 43 18 23 1016.9 1016.7 0.0
18/08:00am 17.4 12.8 9.8 61 4.0 SE 24 35 13 19 1016.7 1016.5 0.0
18/07:30am 15.9 13.3 10.7 71 2.8 SSE 15 20 8 11 1016.5 1016.3 0.0

Other formats

Comma delimited format used in spreadsheet applications
http://www.bom.gov.au/fwo/IDS60801/IDS60801.95663.axf

JavaScript Object Notation format (JSON) in row-major order
http://www.bom.gov.au/fwo/IDS60801/IDS60801.95663.json

Data quality

Most of these data are generated automatically and are frequently updated. Quality checks on data are not normally performed. It is possible for incorrect values to appear. Refer to information at About Latest Weather Observations and please check the disclaimer before using these data.